createdAt,value
2019-02-23T00:00:24.530Z,96.63
2019-02-23T00:02:55.857Z,103.23
2019-02-23T00:05:25.318Z,104.57
2019-02-23T00:07:54.537Z,110.37
2019-02-23T00:10:23.849Z,104.70
2019-02-23T00:12:53.458Z,106.80
2019-02-23T00:15:22.663Z,103.30
2019-02-23T00:17:51.902Z,100.37
2019-02-23T00:20:21.165Z,106.17
2019-02-23T00:22:50.351Z,100.93
2019-02-23T00:25:19.578Z,98.67
2019-02-23T00:27:48.781Z,97.83
2019-02-23T00:30:17.969Z,94.87
2019-02-23T00:32:47.237Z,92.67
2019-02-23T00:35:16.421Z,90.83
2019-02-23T00:37:46.693Z,88.17
2019-02-23T00:40:15.984Z,85.13
2019-02-23T00:42:45.263Z,91.10
2019-02-23T00:45:14.519Z,82.37
2019-02-23T00:47:43.767Z,96.43
2019-02-23T00:50:13.036Z,93.20
2019-02-23T00:52:42.265Z,85.30
2019-02-23T00:55:11.572Z,87.87
2019-02-23T00:57:40.765Z,82.97
2019-02-23T01:00:11.432Z,89.80
2019-02-23T01:02:40.761Z,84.33
2019-02-23T01:05:09.994Z,89.47
2019-02-23T01:07:39.243Z,88.07
2019-02-23T01:10:10.066Z,84.70
2019-02-23T01:12:40.873Z,92.47
2019-02-23T01:15:10.897Z,87.43
2019-02-23T01:17:40.284Z,89.43
2019-02-23T01:20:10.363Z,91.87
2019-02-23T01:22:39.562Z,92.27
2019-02-23T01:25:09.028Z,89.60
2019-02-23T01:27:38.261Z,79.70
2019-02-23T01:30:09.322Z,86.93
2019-02-23T01:32:38.756Z,82.33
2019-02-23T01:35:08.011Z,74.53
2019-02-23T01:37:37.215Z,82.23
2019-02-23T01:40:08.766Z,86.40
2019-02-23T01:42:38.278Z,86.93
2019-02-23T01:45:08.139Z,88.37
2019-02-23T01:47:37.428Z,82.67
2019-02-23T01:50:07.440Z,86.80
2019-02-23T01:52:36.718Z,84.03
2019-02-23T01:55:06.879Z,86.03
2019-02-23T01:57:36.153Z,93.13
2019-02-23T02:00:11.651Z,82.57
2019-02-23T02:02:40.906Z,72.00
2019-02-23T02:05:10.183Z,92.03
2019-02-23T02:07:40.716Z,79.93
2019-02-23T02:10:10.682Z,88.37
2019-02-23T02:12:39.913Z,75.97
2019-02-23T02:15:11.366Z,72.20
2019-02-23T02:17:41.780Z,72.70
2019-02-23T02:20:11.713Z,77.73
2019-02-23T02:22:41.092Z,78.23
2019-02-23T02:25:10.538Z,70.30
2019-02-23T02:27:39.753Z,73.37
2019-02-23T02:30:10.898Z,73.87
2019-02-23T02:32:40.169Z,73.97
2019-02-23T02:35:10.526Z,74.07
2019-02-23T02:37:39.758Z,71.23
2019-02-23T02:40:09.498Z,75.63
2019-02-23T02:42:38.783Z,70.70
2019-02-23T02:45:10.123Z,73.07
2019-02-23T02:47:39.708Z,78.47
2019-02-23T02:50:23.310Z,69.67
2019-02-23T02:52:41.640Z,67.60
2019-02-23T02:55:11.055Z,65.20
2019-02-23T02:57:40.469Z,64.33
2019-02-23T03:00:12.042Z,64.90
2019-02-23T03:02:42.806Z,65.73
2019-02-23T03:05:13.176Z,70.00
2019-02-23T03:07:42.708Z,64.03
2019-02-23T03:10:12.048Z,57.73
2019-02-23T03:12:41.357Z,69.07
2019-02-23T03:15:10.619Z,62.60
2019-02-23T03:17:40.185Z,57.33
2019-02-23T03:20:09.428Z,57.67
2019-02-23T03:22:38.676Z,66.00
2019-02-23T03:25:08.028Z,57.40
2019-02-23T03:27:37.606Z,61.37
2019-02-23T03:30:09.800Z,60.73
2019-02-23T03:32:39.123Z,60.20
2019-02-23T03:35:08.382Z,58.07
2019-02-23T03:37:37.642Z,64.50
2019-02-23T03:40:08.222Z,56.60
2019-02-23T03:42:37.490Z,62.67
2019-02-23T03:45:06.775Z,57.80
2019-02-23T03:47:36.084Z,68.13
2019-02-23T03:50:07.180Z,59.97
2019-02-23T03:52:36.504Z,57.67
2019-02-23T03:55:05.849Z,50.87
2019-02-23T03:57:35.139Z,66.70
2019-02-23T04:00:05.031Z,59.17
2019-02-23T04:02:34.407Z,63.70
2019-02-23T04:05:03.698Z,69.07
2019-02-23T04:07:33.143Z,67.80
2019-02-23T04:10:02.687Z,64.93
2019-02-23T04:12:31.974Z,63.13
2019-02-23T04:15:02.217Z,62.07
2019-02-23T04:17:31.953Z,59.03
2019-02-23T04:20:01.515Z,70.23
2019-02-23T04:22:30.791Z,67.27
2019-02-23T04:25:00.153Z,67.47
2019-02-23T04:27:29.680Z,62.47
2019-02-23T04:29:59.139Z,71.80
2019-02-23T04:32:28.354Z,65.40
2019-02-23T04:34:57.583Z,71.70
2019-02-23T04:37:27.745Z,66.87
2019-02-23T04:39:56.975Z,65.90
2019-02-23T04:42:26.179Z,64.47
2019-02-23T04:44:55.468Z,69.03
2019-02-23T04:47:24.702Z,69.27
2019-02-23T04:49:54.950Z,66.00
2019-02-23T04:52:24.270Z,59.87
2019-02-23T04:54:53.592Z,61.80
2019-02-23T04:57:22.870Z,70.13
2019-02-23T04:59:52.166Z,62.10
2019-02-23T05:02:21.365Z,63.57
2019-02-23T05:04:50.565Z,68.67
2019-02-23T05:07:19.835Z,60.77
2019-02-23T05:09:49.113Z,62.73
2019-02-23T05:12:18.326Z,73.13
2019-02-23T05:14:47.629Z,66.33
2019-02-23T05:17:17.011Z,71.80
2019-02-23T05:19:46.197Z,63.53
2019-02-23T05:22:15.505Z,64.03
2019-02-23T05:24:44.769Z,54.43
2019-02-23T05:27:13.972Z,60.67
2019-02-23T05:29:43.611Z,65.93
2019-02-23T05:32:13.213Z,56.87
2019-02-23T05:34:43.709Z,51.47
2019-02-23T05:37:13.062Z,53.70
2019-02-23T05:39:42.265Z,61.30
2019-02-23T05:42:11.474Z,59.57
2019-02-23T05:44:40.764Z,57.67
2019-02-23T05:47:09.943Z,54.77
2019-02-23T05:49:39.131Z,64.47
2019-02-23T05:52:08.351Z,58.60
2019-02-23T05:54:37.720Z,70.10
2019-02-23T05:57:07.000Z,58.23
2019-02-23T05:59:36.222Z,61.73
2019-02-23T06:02:05.544Z,66.70
2019-02-23T06:04:34.754Z,64.20
2019-02-23T06:07:04.062Z,64.13
2019-02-23T06:09:33.318Z,67.17
2019-02-23T06:12:02.909Z,66.33
2019-02-23T06:14:32.201Z,65.80
2019-02-23T06:17:04.173Z,63.43
2019-02-23T06:19:33.676Z,57.10
2019-02-23T06:22:02.901Z,63.37
2019-02-23T06:24:32.151Z,67.00
2019-02-23T06:27:01.438Z,59.90
2019-02-23T06:29:30.695Z,59.57
2019-02-23T06:31:59.898Z,63.20
2019-02-23T06:34:29.205Z,61.80
2019-02-23T06:36:58.503Z,58.33
2019-02-23T06:39:27.716Z,54.33
2019-02-23T06:41:56.966Z,57.20
2019-02-23T06:44:26.236Z,60.07
2019-02-23T06:46:55.650Z,56.87
2019-02-23T06:49:24.890Z,56.53
2019-02-23T06:52:03.968Z,61.87
2019-02-23T06:54:24.974Z,62.20
2019-02-23T06:56:54.232Z,59.90
2019-02-23T06:59:23.528Z,61.20
2019-02-23T07:01:52.960Z,60.40
2019-02-23T07:04:22.187Z,62.20
2019-02-23T07:06:51.397Z,61.10
2019-02-23T07:09:20.691Z,61.30
2019-02-23T07:11:49.890Z,57.40
2019-02-23T07:14:19.102Z,58.67
2019-02-23T07:16:49.442Z,65.00
2019-02-23T07:19:18.968Z,60.53
2019-02-23T07:21:48.503Z,57.20
2019-02-23T07:24:17.795Z,61.10
2019-02-23T07:26:47.238Z,58.03
2019-02-23T07:29:16.436Z,63.80
2019-02-23T07:31:45.655Z,68.10
2019-02-23T07:34:14.850Z,79.50
2019-02-23T07:36:44.385Z,66.23
2019-02-23T07:39:13.624Z,63.30
2019-02-23T07:41:42.817Z,65.87
2019-02-23T07:44:12.095Z,64.83
2019-02-23T07:46:41.328Z,63.40
2019-02-23T07:49:10.531Z,66.47
2019-02-23T07:51:39.714Z,67.90
2019-02-23T07:54:09.010Z,65.50
2019-02-23T07:56:38.260Z,66.70
2019-02-23T07:59:07.508Z,63.63
2019-02-23T08:01:37.204Z,74.27
2019-02-23T08:04:06.598Z,73.07
2019-02-23T08:06:35.809Z,69.33
2019-02-23T08:09:05.298Z,77.77
2019-02-23T08:11:34.656Z,78.70
2019-02-23T08:14:03.874Z,72.07
2019-02-23T08:16:33.175Z,80.97
2019-02-23T08:19:02.419Z,76.73
2019-02-23T08:21:31.699Z,75.30
2019-02-23T08:24:01.005Z,69.57
2019-02-23T08:26:30.193Z,65.87
2019-02-23T08:28:59.404Z,61.37
2019-02-23T08:31:28.644Z,65.83
2019-02-23T08:33:57.894Z,67.53
2019-02-23T08:36:27.117Z,71.43
2019-02-23T08:38:56.456Z,62.80
2019-02-23T08:41:25.734Z,63.03
2019-02-23T08:43:54.964Z,67.00
2019-02-23T08:46:24.200Z,62.47
2019-02-23T08:48:53.463Z,59.27
2019-02-23T08:51:22.669Z,61.20
2019-02-23T08:53:51.912Z,67.43
2019-02-23T08:56:21.162Z,63.23
2019-02-23T08:58:50.403Z,59.73
2019-02-23T09:01:19.732Z,54.27
2019-02-23T09:03:49.860Z,57.90
2019-02-23T09:06:19.097Z,60.93
2019-02-23T09:08:48.415Z,51.60
2019-02-23T09:11:17.613Z,56.90
2019-02-23T09:13:47.111Z,51.93
2019-02-23T09:16:16.352Z,50.43
2019-02-23T09:18:47.383Z,52.90
2019-02-23T09:21:16.830Z,51.67
2019-02-23T09:23:46.051Z,49.90
2019-02-23T09:26:15.584Z,45.37
2019-02-23T09:28:44.961Z,50.63
2019-02-23T09:31:14.206Z,49.10
2019-02-23T09:33:43.494Z,44.33
2019-02-23T09:36:12.855Z,51.53
2019-02-23T09:38:42.119Z,39.00
2019-02-23T09:41:11.418Z,41.63
2019-02-23T09:43:40.763Z,39.93
2019-02-23T09:46:10.035Z,39.33
2019-02-23T09:48:39.325Z,41.07
2019-02-23T09:51:08.672Z,43.40
2019-02-23T09:53:37.937Z,37.63
2019-02-23T09:56:07.201Z,39.73
2019-02-23T09:58:44.984Z,40.97
2019-02-23T10:01:14.163Z,36.80
2019-02-23T10:03:46.249Z,41.20
2019-02-23T10:06:15.526Z,46.63
2019-02-23T10:08:52.966Z,49.63
2019-02-23T10:11:22.285Z,36.87
2019-02-23T10:13:56.425Z,37.70
2019-02-23T10:17:55.608Z,38.73
2019-02-23T10:20:25.098Z,36.47
2019-02-23T10:22:54.373Z,30.73
2019-02-23T10:25:24.635Z,34.43
2019-02-23T10:27:59.381Z,38.83
2019-02-23T10:30:30.152Z,36.27
2019-02-23T10:32:59.995Z,45.73
2019-02-23T10:35:29.281Z,38.80
2019-02-23T10:37:58.554Z,36.47
2019-02-23T10:40:27.862Z,36.63
2019-02-23T10:42:57.105Z,31.63
2019-02-23T10:45:26.572Z,29.33
2019-02-23T10:47:56.011Z,29.90
2019-02-23T10:50:26.327Z,30.10
2019-02-23T10:52:55.595Z,37.97
2019-02-23T10:55:25.142Z,37.57
2019-02-23T10:57:54.418Z,32.10
2019-02-23T11:00:23.825Z,35.80
2019-02-23T11:02:54.032Z,41.80
2019-02-23T11:05:23.299Z,48.13
2019-02-23T11:07:52.566Z,35.50
2019-02-23T11:10:22.137Z,41.83
2019-02-23T11:12:51.358Z,35.37
2019-02-23T11:15:21.977Z,30.47
2019-02-23T11:17:51.281Z,35.83
2019-02-23T11:20:20.544Z,25.60
2019-02-23T11:22:50.745Z,33.43
2019-02-23T11:25:20.023Z,31.73
2019-02-23T11:27:49.290Z,30.43
2019-02-23T11:30:18.549Z,38.13
2019-02-23T11:32:48.120Z,31.77
2019-02-23T11:35:17.952Z,35.60
2019-02-23T11:37:47.288Z,30.83
2019-02-23T11:40:16.873Z,41.80
2019-02-23T11:42:46.133Z,41.17
2019-02-23T11:45:15.726Z,42.43
2019-02-23T11:47:45.053Z,38.93
2019-02-23T11:50:14.592Z,30.03
2019-02-23T11:52:44.030Z,27.17
2019-02-23T11:55:13.416Z,37.50
2019-02-23T11:57:42.741Z,28.43
2019-02-23T12:00:13.851Z,26.57
2019-02-23T12:02:51.995Z,34.63
2019-02-23T12:05:14.234Z,27.30
2019-02-23T12:07:44.645Z,29.10
2019-02-23T12:10:16.911Z,27.47
2019-02-23T12:12:46.220Z,28.03
2019-02-23T12:15:15.495Z,27.87
2019-02-23T12:17:45.064Z,33.73
2019-02-23T12:20:14.320Z,30.90
2019-02-23T12:22:43.547Z,24.87
2019-02-23T12:25:15.930Z,24.17
2019-02-23T12:27:43.698Z,29.17
2019-02-23T12:30:13.334Z,24.10
2019-02-23T12:32:42.567Z,26.73
2019-02-23T12:35:12.384Z,26.50
2019-02-23T12:37:41.602Z,30.80
2019-02-23T12:40:11.000Z,25.20
2019-02-23T12:42:40.253Z,21.97
2019-02-23T12:45:13.628Z,31.23
2019-02-23T12:47:42.879Z,27.03
2019-02-23T12:50:13.112Z,22.57
2019-02-23T12:52:42.423Z,26.20
2019-02-23T12:55:11.961Z,28.20
2019-02-23T12:57:41.237Z,28.50
2019-02-23T13:00:15.807Z,28.67
2019-02-23T13:02:44.978Z,24.40
2019-02-23T13:05:14.283Z,24.53
2019-02-23T13:07:44.516Z,26.07
2019-02-23T13:10:13.890Z,30.07
2019-02-23T13:12:46.443Z,26.70
2019-02-23T13:15:38.523Z,27.17
2019-02-23T13:18:22.879Z,26.30
2019-02-23T13:21:13.217Z,26.50
2019-02-23T13:23:45.736Z,26.67
2019-02-23T13:26:33.367Z,29.67
2019-02-23T13:29:30.052Z,28.50
2019-02-23T13:32:08.091Z,28.93
2019-02-23T13:34:46.315Z,30.33
2019-02-23T13:37:43.557Z,27.47
2019-02-23T13:40:37.010Z,30.10
2019-02-23T13:43:18.249Z,25.67
2019-02-23T13:45:56.440Z,38.23
2019-02-23T13:48:57.157Z,32.27
2019-02-23T13:52:02.831Z,27.57
2019-02-23T13:54:54.063Z,29.93
2019-02-23T13:57:44.556Z,29.60
2019-02-23T14:00:39.233Z,26.50
2019-02-23T14:03:20.930Z,28.23
2019-02-23T14:05:55.969Z,24.93
2019-02-23T14:08:34.687Z,27.10
2019-02-23T14:11:18.972Z,24.70
2019-02-23T14:14:19.779Z,27.47
2019-02-23T14:16:56.035Z,26.17
2019-02-23T14:19:40.441Z,23.83
2019-02-23T14:22:30.841Z,26.27
2019-02-23T14:25:15.383Z,26.17
2019-02-23T14:27:53.411Z,24.80
2019-02-23T14:30:31.940Z,27.90
2019-02-23T14:33:07.359Z,25.80
2019-02-23T14:35:48.759Z,24.97
2019-02-23T14:38:33.208Z,24.33
2019-02-23T14:41:14.447Z,22.10
2019-02-23T14:43:56.166Z,22.40
2019-02-23T14:46:45.617Z,23.43
2019-02-23T14:49:37.663Z,25.00
2019-02-23T14:52:15.416Z,25.70
2019-02-23T14:55:04.345Z,22.33
2019-02-23T14:57:45.723Z,19.93
2019-02-23T15:00:52.827Z,20.77
2019-02-23T15:03:40.225Z,21.53
2019-02-23T15:06:12.669Z,23.77
2019-02-23T15:08:56.612Z,26.80
2019-02-23T15:11:29.068Z,22.27
2019-02-23T15:14:01.603Z,21.37
2019-02-23T15:17:00.034Z,19.70
2019-02-23T15:20:06.639Z,19.83
2019-02-23T15:22:56.074Z,24.33
2019-02-23T15:25:36.719Z,24.50
2019-02-23T15:28:10.182Z,21.03
2019-02-23T15:31:05.679Z,23.90
2019-02-23T15:33:49.976Z,22.73
2019-02-23T15:36:22.526Z,26.40
2019-02-23T15:39:00.895Z,23.90
2019-02-23T15:41:51.404Z,20.67
2019-02-23T15:44:48.367Z,19.47
2019-02-23T15:47:38.976Z,29.73
2019-02-23T15:50:13.072Z,28.27
2019-02-23T15:52:39.162Z,24.10
2019-02-23T15:55:08.525Z,27.77
2019-02-23T15:57:37.758Z,31.83
2019-02-23T16:00:08.902Z,26.67
2019-02-23T16:02:39.114Z,27.87
2019-02-23T16:05:08.701Z,31.33
2019-02-23T16:07:37.944Z,25.43
2019-02-23T16:10:07.404Z,27.03
2019-02-23T16:12:36.682Z,26.10
2019-02-23T16:15:06.407Z,28.00
2019-02-23T16:17:36.179Z,30.20
2019-02-23T16:20:07.786Z,32.33
2019-02-23T16:22:37.119Z,28.90
2019-02-23T16:25:06.646Z,28.10
2019-02-23T16:27:37.554Z,29.03
2019-02-23T16:30:09.627Z,33.40
2019-02-23T16:32:38.842Z,29.00
2019-02-23T16:35:09.089Z,32.30
2019-02-23T16:37:38.319Z,31.63
2019-02-23T16:40:07.986Z,29.43
2019-02-23T16:42:37.250Z,24.93
2019-02-23T16:45:08.644Z,28.67
2019-02-23T16:47:37.895Z,26.93
2019-02-23T16:50:07.978Z,26.37
2019-02-23T16:52:37.186Z,26.73
2019-02-23T16:55:06.436Z,30.43
2019-02-23T16:57:35.660Z,23.80
2019-02-23T17:00:07.345Z,30.13
2019-02-23T17:02:38.198Z,33.20
2019-02-23T17:05:08.122Z,28.67
2019-02-23T17:07:38.452Z,26.67
2019-02-23T17:10:07.989Z,26.63
2019-02-23T17:12:38.758Z,27.90
2019-02-23T17:15:10.471Z,25.30
2019-02-23T17:17:39.082Z,28.50
2019-02-23T17:20:08.725Z,30.00
2019-02-23T17:22:38.050Z,29.30
2019-02-23T17:25:07.659Z,27.57
2019-02-23T17:27:36.927Z,26.83
2019-02-23T17:30:08.256Z,28.73
2019-02-23T17:32:37.496Z,30.00
2019-02-23T17:35:07.067Z,26.93
2019-02-23T17:37:36.332Z,24.93
2019-02-23T17:40:07.643Z,23.73
2019-02-23T17:42:36.835Z,30.13
2019-02-23T17:45:10.778Z,26.10
2019-02-23T17:47:40.030Z,32.13
2019-02-23T17:50:09.295Z,30.87
2019-02-23T17:52:38.514Z,23.67
2019-02-23T17:55:08.338Z,25.20
2019-02-23T17:57:37.524Z,29.93
2019-02-23T18:00:13.511Z,28.87
2019-02-23T18:02:43.019Z,25.20
2019-02-23T18:05:12.253Z,31.13
2019-02-23T18:07:41.557Z,30.63
2019-02-23T18:10:10.732Z,27.17
2019-02-23T18:12:42.316Z,31.40
2019-02-23T18:15:11.486Z,26.27
2019-02-23T18:17:41.200Z,27.67
2019-02-23T18:20:12.804Z,27.00
2019-02-23T18:22:42.155Z,32.87
2019-02-23T18:25:11.333Z,26.03
2019-02-23T18:27:40.609Z,29.33
2019-02-23T18:30:13.920Z,29.97
2019-02-23T18:32:41.808Z,27.20
2019-02-23T18:35:11.138Z,31.50
2019-02-23T18:37:40.365Z,30.20
2019-02-23T18:40:09.629Z,35.40
2019-02-23T18:42:38.861Z,35.87
2019-02-23T18:45:08.683Z,33.30
2019-02-23T18:47:38.075Z,35.13
2019-02-23T18:50:08.674Z,35.27
2019-02-23T18:52:37.893Z,30.17
2019-02-23T18:55:07.990Z,35.73
2019-02-23T18:57:37.839Z,30.37
2019-02-23T19:00:10.124Z,36.23
2019-02-23T19:02:39.486Z,36.67
2019-02-23T19:05:11.293Z,40.23
2019-02-23T19:07:40.643Z,31.67
2019-02-23T19:10:12.069Z,32.53
2019-02-23T19:12:41.356Z,41.80
2019-02-23T19:15:12.374Z,34.93
2019-02-23T19:17:41.655Z,39.93
2019-02-23T19:20:13.524Z,38.20
2019-02-23T19:22:42.822Z,38.27
2019-02-23T19:25:11.988Z,45.07
2019-02-23T19:27:41.184Z,36.70
2019-02-23T19:30:12.646Z,34.20
2019-02-23T19:32:42.040Z,37.57
2019-02-23T19:35:11.798Z,39.07
2019-02-23T19:37:41.035Z,32.60
2019-02-23T19:40:10.519Z,34.43
2019-02-23T19:42:40.118Z,35.43
2019-02-23T19:45:10.959Z,38.60
2019-02-23T19:47:41.788Z,39.10
2019-02-23T19:50:25.480Z,36.57
2019-02-23T19:52:54.856Z,36.77
2019-02-23T19:55:24.192Z,39.60
2019-02-23T19:57:53.441Z,34.60
2019-02-23T20:00:22.685Z,37.93
2019-02-23T20:02:51.962Z,43.60
2019-02-23T20:05:21.513Z,37.43
2019-02-23T20:07:52.633Z,33.93
2019-02-23T20:10:21.772Z,41.77
2019-02-23T20:12:50.936Z,32.67
2019-02-23T20:15:20.565Z,32.37
2019-02-23T20:17:49.868Z,39.03
2019-02-23T20:20:19.070Z,40.77
2019-02-23T20:22:48.458Z,35.27
2019-02-23T20:25:17.750Z,42.90
2019-02-23T20:27:46.920Z,41.57
2019-02-23T20:30:16.098Z,45.97
2019-02-23T20:32:45.438Z,42.07
2019-02-23T20:35:14.698Z,54.67
2019-02-23T20:37:43.988Z,46.47
2019-02-23T20:40:14.424Z,48.70
2019-02-23T20:42:43.621Z,49.23
2019-02-23T20:45:12.875Z,41.53
2019-02-23T20:47:43.862Z,44.87
2019-02-23T20:50:13.491Z,46.20
2019-02-23T20:52:42.745Z,36.87
2019-02-23T20:55:11.952Z,37.03
2019-02-23T20:57:41.182Z,38.77
2019-02-23T21:00:11.560Z,34.57
2019-02-23T21:02:42.449Z,34.80
2019-02-23T21:05:13.418Z,37.60
2019-02-23T21:07:42.744Z,34.73
2019-02-23T21:10:12.296Z,42.67
2019-02-23T21:12:41.854Z,34.67
2019-02-23T21:15:11.619Z,45.03
2019-02-23T21:17:41.060Z,43.33
2019-02-23T21:20:10.995Z,36.17
2019-02-23T21:22:40.164Z,36.97
2019-02-23T21:25:09.628Z,36.67
2019-02-23T21:27:38.912Z,35.47
2019-02-23T21:30:09.775Z,37.67
2019-02-23T21:32:38.977Z,37.07
2019-02-23T21:35:08.630Z,39.17
2019-02-23T21:37:37.881Z,35.27
2019-02-23T21:40:09.014Z,35.40
2019-02-23T21:42:38.446Z,38.37
2019-02-23T21:45:08.916Z,48.97
2019-02-23T21:47:38.230Z,47.13
2019-02-23T21:50:09.216Z,48.53
2019-02-23T21:52:39.478Z,41.43
2019-02-23T21:55:09.014Z,37.00
2019-02-23T21:57:38.262Z,37.67
2019-02-23T22:00:10.541Z,35.57
2019-02-23T22:02:40.109Z,40.40
2019-02-23T22:05:12.346Z,34.13
2019-02-23T22:07:40.521Z,38.50
2019-02-23T22:10:09.766Z,37.93
2019-02-23T22:12:39.228Z,35.40
2019-02-23T22:15:08.485Z,37.03
2019-02-23T22:17:37.736Z,36.33
2019-02-23T22:20:07.625Z,38.53
2019-02-23T22:22:36.826Z,39.13
2019-02-23T22:25:06.078Z,35.23
2019-02-23T22:27:35.658Z,37.90
2019-02-23T22:30:06.561Z,39.90
2019-02-23T22:32:35.779Z,36.67
2019-02-23T22:35:05.422Z,37.47
2019-02-23T22:37:35.017Z,34.50
2019-02-23T22:40:05.516Z,31.57
2019-02-23T22:42:34.817Z,31.63
2019-02-23T22:45:05.742Z,31.57
2019-02-23T22:47:35.024Z,32.40
2019-02-23T22:50:06.309Z,32.27
2019-02-23T22:52:35.584Z,34.07
2019-02-23T22:55:05.298Z,31.87
2019-02-23T22:57:40.586Z,31.57
2019-02-23T23:00:15.247Z,33.13
2019-02-23T23:02:46.168Z,30.97
2019-02-23T23:05:15.779Z,33.80
2019-02-23T23:07:45.021Z,32.90
2019-02-23T23:10:14.347Z,33.33
2019-02-23T23:12:43.573Z,30.77
2019-02-23T23:15:13.065Z,33.50
2019-02-23T23:17:42.255Z,29.63
2019-02-23T23:20:11.532Z,31.50
2019-02-23T23:22:40.698Z,27.83
2019-02-23T23:25:10.257Z,33.03
2019-02-23T23:27:39.462Z,26.67
2019-02-23T23:30:09.707Z,28.67
2019-02-23T23:32:38.947Z,25.33
2019-02-23T23:35:08.301Z,30.23
2019-02-23T23:37:37.445Z,31.23
2019-02-23T23:40:06.953Z,28.57
2019-02-23T23:42:36.162Z,30.80
2019-02-23T23:45:06.057Z,27.97
2019-02-23T23:47:35.290Z,30.37
2019-02-23T23:50:05.543Z,31.57
2019-02-23T23:52:35.049Z,29.73
2019-02-23T23:55:05.196Z,28.70
2019-02-23T23:57:34.394Z,32.43
